createdAt,value
2023-03-14T00:00:04.431Z,980.96
2023-03-14T00:01:04.420Z,980.93
2023-03-14T00:02:04.432Z,980.92
2023-03-14T00:03:04.387Z,980.97
2023-03-14T00:04:04.390Z,980.98
2023-03-14T00:05:04.372Z,981.07
2023-03-14T00:06:04.381Z,981.00
2023-03-14T00:07:04.347Z,980.98
2023-03-14T00:08:04.343Z,981.01
2023-03-14T00:09:04.331Z,980.99
2023-03-14T00:10:04.335Z,980.94
2023-03-14T00:11:04.328Z,980.92
2023-03-14T00:12:04.396Z,980.89
2023-03-14T00:13:04.299Z,980.84
2023-03-14T00:14:04.283Z,980.80
2023-03-14T00:15:04.285Z,980.76
2023-03-14T00:16:04.308Z,980.64
2023-03-14T00:17:04.249Z,980.60
2023-03-14T00:18:04.240Z,980.53
2023-03-14T00:19:04.244Z,980.46
2023-03-14T00:20:04.226Z,980.42
2023-03-14T00:21:04.202Z,980.39
2023-03-14T00:22:04.196Z,980.32
2023-03-14T00:23:04.183Z,980.40
2023-03-14T00:24:04.206Z,980.31
2023-03-14T00:25:04.167Z,980.33
2023-03-14T00:26:04.154Z,980.28
2023-03-14T00:27:04.167Z,980.23
2023-03-14T00:28:04.132Z,980.24
2023-03-14T00:29:04.127Z,980.29
2023-03-14T00:30:04.111Z,980.40
2023-03-14T00:31:04.177Z,980.28
2023-03-14T00:32:04.114Z,980.35
2023-03-14T00:33:04.079Z,980.39
2023-03-14T00:34:04.087Z,980.44
2023-03-14T00:35:04.071Z,980.54
2023-03-14T00:36:04.123Z,980.57
2023-03-14T00:37:04.046Z,980.64
2023-03-14T00:38:04.028Z,980.74
2023-03-14T00:39:04.016Z,980.82
2023-03-14T00:40:04.017Z,980.83
2023-03-14T00:41:03.997Z,980.83
2023-03-14T00:42:04.000Z,980.93
2023-03-14T00:43:03.977Z,980.95
2023-03-14T00:44:03.967Z,980.97
2023-03-14T00:45:03.947Z,980.95
2023-03-14T00:46:03.944Z,980.97
2023-03-14T00:47:04.044Z,980.91
2023-03-14T00:48:03.926Z,980.97
2023-03-14T00:49:03.915Z,980.93
2023-03-14T00:50:03.941Z,980.92
2023-03-14T00:51:03.884Z,980.80
2023-03-14T00:52:03.905Z,980.83
2023-03-14T00:53:03.895Z,980.81
2023-03-14T00:54:03.876Z,980.79
2023-03-14T00:55:03.856Z,980.82
2023-03-14T00:56:03.836Z,980.86
2023-03-14T00:57:03.830Z,980.90
2023-03-14T00:58:03.824Z,981.02
2023-03-14T00:59:03.812Z,981.06
2023-03-14T01:00:03.815Z,981.02
2023-03-14T01:01:03.787Z,981.11
2023-03-14T01:02:03.845Z,981.14
2023-03-14T01:03:03.819Z,981.18
2023-03-14T01:04:03.762Z,981.18
2023-03-14T01:05:03.764Z,981.24
2023-03-14T01:06:03.742Z,981.28
2023-03-14T01:07:03.731Z,981.20
2023-03-14T01:08:03.714Z,981.26
2023-03-14T01:09:03.757Z,981.28
2023-03-14T01:10:03.713Z,981.22
2023-03-14T01:11:03.682Z,981.25
2023-03-14T01:12:03.689Z,981.28
2023-03-14T01:13:03.667Z,981.23
2023-03-14T01:14:03.655Z,981.15
2023-03-14T01:15:03.666Z,981.15
2023-03-14T01:16:03.720Z,981.14
2023-03-14T01:17:03.694Z,981.22
2023-03-14T01:18:03.614Z,981.22
2023-03-14T01:19:03.605Z,981.20
2023-03-14T01:20:03.703Z,981.15
2023-03-14T01:21:03.599Z,981.13
2023-03-14T01:22:03.592Z,981.18
2023-03-14T01:23:03.566Z,981.06
2023-03-14T01:24:03.586Z,981.06
2023-03-14T01:25:03.544Z,981.10
2023-03-14T01:26:03.534Z,981.07
2023-03-14T01:27:03.524Z,981.05
2023-03-14T01:28:03.514Z,981.08
2023-03-14T01:29:03.506Z,981.17
2023-03-14T01:30:03.511Z,981.17
2023-03-14T01:31:03.518Z,981.15
2023-03-14T01:32:03.486Z,981.12
2023-03-14T01:33:03.473Z,981.18
2023-03-14T01:34:03.447Z,981.12
2023-03-14T01:35:03.445Z,981.14
2023-03-14T01:36:03.502Z,981.12
2023-03-14T01:37:03.420Z,981.16
2023-03-14T01:38:03.427Z,981.09
2023-03-14T01:39:03.394Z,981.04
2023-03-14T01:40:03.386Z,980.98
2023-03-14T01:41:03.378Z,980.98
2023-03-14T01:42:03.369Z,980.91
2023-03-14T01:43:03.355Z,980.87
2023-03-14T01:44:03.344Z,980.90
2023-03-14T01:45:03.339Z,980.84
2023-03-14T01:46:03.417Z,980.88
2023-03-14T01:47:03.324Z,980.84
2023-03-14T01:48:03.301Z,980.80
2023-03-14T01:49:03.292Z,980.82
2023-03-14T01:50:03.281Z,980.79
2023-03-14T01:51:03.263Z,980.79
2023-03-14T01:52:03.305Z,980.78
2023-03-14T01:53:03.246Z,980.78
2023-03-14T01:54:03.242Z,980.73
2023-03-14T01:55:03.238Z,980.75
2023-03-14T01:56:03.217Z,980.74
2023-03-14T01:57:03.208Z,980.76
2023-03-14T01:58:03.192Z,980.73
2023-03-14T01:59:03.193Z,980.79
2023-03-14T02:00:03.211Z,980.75
2023-03-14T02:01:03.227Z,980.70
2023-03-14T02:02:03.172Z,980.73
2023-03-14T02:03:03.145Z,980.71
2023-03-14T02:04:03.133Z,980.68
2023-03-14T02:05:03.131Z,980.71
2023-03-14T02:06:03.113Z,980.71
2023-03-14T02:07:03.108Z,980.68
2023-03-14T02:08:03.109Z,980.69
2023-03-14T02:09:03.080Z,980.68
2023-03-14T02:10:03.096Z,980.72
2023-03-14T02:11:03.061Z,980.72
2023-03-14T02:12:03.072Z,980.69
2023-03-14T02:13:03.037Z,980.66
2023-03-14T02:14:03.050Z,980.66
2023-03-14T02:15:03.038Z,980.61
2023-03-14T02:16:03.092Z,980.60
2023-03-14T02:17:02.986Z,980.64
2023-03-14T02:18:02.993Z,980.64
2023-03-14T02:19:02.968Z,980.68
2023-03-14T02:20:02.975Z,980.67
2023-03-14T02:21:02.955Z,980.76
2023-03-14T02:22:03.007Z,980.67
2023-03-14T02:23:02.929Z,980.63
2023-03-14T02:24:02.915Z,980.70
2023-03-14T02:25:02.902Z,980.69
2023-03-14T02:26:02.902Z,980.71
2023-03-14T02:27:02.880Z,980.66
2023-03-14T02:28:02.888Z,980.67
2023-03-14T02:29:02.866Z,980.68
2023-03-14T02:30:02.869Z,980.69
2023-03-14T02:31:02.840Z,980.67
2023-03-14T02:32:02.919Z,980.67
2023-03-14T02:33:02.874Z,980.70
2023-03-14T02:34:02.812Z,980.67
2023-03-14T02:35:02.819Z,980.68
2023-03-14T02:36:02.855Z,980.57
2023-03-14T02:37:02.806Z,980.57
2023-03-14T02:38:02.766Z,980.55
2023-03-14T02:39:02.752Z,980.61
2023-03-14T02:40:02.741Z,980.49
2023-03-14T02:41:02.742Z,980.57
2023-03-14T02:42:02.718Z,980.60
2023-03-14T02:43:02.710Z,980.60
2023-03-14T02:44:02.719Z,980.58
2023-03-14T02:45:02.684Z,980.66
2023-03-14T02:46:02.761Z,980.67
2023-03-14T02:47:02.675Z,980.66
2023-03-14T02:48:02.684Z,980.68
2023-03-14T02:49:02.650Z,980.70
2023-03-14T02:50:02.650Z,980.67
2023-03-14T02:51:02.632Z,980.71
2023-03-14T02:52:02.617Z,980.68
2023-03-14T02:53:02.620Z,980.68
2023-03-14T02:54:02.593Z,980.69
2023-03-14T02:55:02.585Z,980.64
2023-03-14T02:56:02.612Z,980.59
2023-03-14T02:57:02.558Z,980.65
2023-03-14T02:58:02.550Z,980.63
2023-03-14T02:59:09.004Z,980.54
2023-03-14T03:00:02.531Z,980.59
2023-03-14T03:01:02.580Z,980.61
2023-03-14T03:02:02.509Z,980.54
2023-03-14T03:03:02.532Z,980.61
2023-03-14T03:04:02.485Z,980.57
2023-03-14T03:05:02.532Z,980.64
2023-03-14T03:06:02.467Z,980.56
2023-03-14T03:07:02.471Z,980.52
2023-03-14T03:08:02.451Z,980.55
2023-03-14T03:09:02.446Z,980.53
2023-03-14T03:10:02.438Z,980.48
2023-03-14T03:11:02.420Z,980.47
2023-03-14T03:12:02.426Z,980.41
2023-03-14T03:13:02.393Z,980.44
2023-03-14T03:14:02.398Z,980.45
2023-03-14T03:15:02.387Z,980.47
2023-03-14T03:16:02.359Z,980.41
2023-03-14T03:17:02.389Z,980.40
2023-03-14T03:18:02.338Z,980.46
2023-03-14T03:19:02.342Z,980.37
2023-03-14T03:20:02.316Z,980.43
2023-03-14T03:21:02.318Z,980.38
2023-03-14T03:22:02.312Z,980.38
2023-03-14T03:23:02.294Z,980.37
2023-03-14T03:24:02.331Z,980.35
2023-03-14T03:25:02.288Z,980.37
2023-03-14T03:26:02.264Z,980.37
2023-03-14T03:27:02.318Z,980.32
2023-03-14T03:28:02.241Z,980.30
2023-03-14T03:29:02.249Z,980.26
2023-03-14T03:30:02.215Z,980.28
2023-03-14T03:31:02.267Z,980.25
2023-03-14T03:32:02.194Z,980.22
2023-03-14T03:33:02.232Z,980.23
2023-03-14T03:34:02.197Z,980.23
2023-03-14T03:35:02.179Z,980.23
2023-03-14T03:36:02.289Z,980.22
2023-03-14T03:37:02.384Z,980.26
2023-03-14T03:38:02.136Z,980.24
2023-03-14T03:39:02.146Z,980.28
2023-03-14T03:40:02.117Z,980.29
2023-03-14T03:41:02.119Z,980.24
2023-03-14T03:42:02.737Z,980.27
2023-03-14T03:43:02.091Z,980.28
2023-03-14T03:44:02.068Z,980.25
2023-03-14T03:45:02.084Z,980.29
2023-03-14T03:46:02.085Z,980.28
2023-03-14T03:47:02.064Z,980.31
2023-03-14T03:48:02.057Z,980.30
2023-03-14T03:49:02.039Z,980.33
2023-03-14T03:50:02.040Z,980.33
2023-03-14T03:51:02.008Z,980.30
2023-03-14T03:52:01.987Z,980.32
2023-03-14T03:53:02.061Z,980.32
2023-03-14T03:54:01.985Z,980.28
2023-03-14T03:55:01.962Z,980.34
2023-03-14T03:56:02.000Z,980.32
2023-03-14T03:57:01.950Z,980.35
2023-03-14T03:58:01.927Z,980.37
2023-03-14T03:59:01.936Z,980.37
2023-03-14T04:00:01.920Z,980.31
2023-03-14T04:01:01.911Z,980.28
2023-03-14T04:02:01.897Z,980.33
2023-03-14T04:03:01.879Z,980.31
2023-03-14T04:04:01.911Z,980.22
2023-03-14T04:05:01.876Z,980.27
2023-03-14T04:06:01.876Z,980.23
2023-03-14T04:07:01.852Z,980.24
2023-03-14T04:08:01.823Z,980.23
2023-03-14T04:09:01.826Z,980.21
2023-03-14T04:10:01.864Z,980.20
2023-03-14T04:11:01.807Z,980.16
2023-03-14T04:12:01.853Z,980.16
2023-03-14T04:13:01.775Z,980.16
2023-03-14T04:14:01.761Z,980.17
2023-03-14T04:15:01.760Z,980.15
2023-03-14T04:16:01.770Z,980.13
2023-03-14T04:17:01.750Z,980.16
2023-03-14T04:18:01.719Z,980.15
2023-03-14T04:19:01.710Z,980.10
2023-03-14T04:20:01.648Z,980.17
2023-03-14T04:21:01.692Z,980.15
2023-03-14T04:22:01.630Z,980.14
2023-03-14T04:23:01.664Z,980.17
2023-03-14T04:24:01.657Z,980.15
2023-03-14T04:25:01.668Z,980.10
2023-03-14T04:26:01.631Z,980.10
2023-03-14T04:27:01.574Z,980.08
2023-03-14T04:28:01.604Z,980.11
2023-03-14T04:29:01.595Z,980.17
2023-03-14T04:30:01.601Z,980.10
2023-03-14T04:31:01.598Z,980.15
2023-03-14T04:32:01.522Z,980.16
2023-03-14T04:33:01.572Z,980.18
2023-03-14T04:34:01.544Z,980.11
2023-03-14T04:35:01.492Z,980.22
2023-03-14T04:36:01.576Z,980.24
2023-03-14T04:37:01.464Z,980.25
2023-03-14T04:38:01.508Z,980.30
2023-03-14T04:39:01.490Z,980.25
2023-03-14T04:40:01.440Z,980.21
2023-03-14T04:41:01.480Z,980.21
2023-03-14T04:42:01.485Z,980.17
2023-03-14T04:43:01.459Z,980.29
2023-03-14T04:44:01.398Z,980.17
2023-03-14T04:45:01.428Z,980.22
2023-03-14T04:46:01.433Z,980.11
2023-03-14T04:47:01.537Z,980.12
2023-03-14T04:48:01.406Z,980.07
2023-03-14T04:49:01.395Z,980.07
2023-03-14T04:50:01.375Z,980.11
2023-03-14T04:51:01.422Z,980.19
2023-03-14T04:52:01.315Z,980.24
2023-03-14T04:53:01.358Z,980.22
2023-03-14T04:54:01.329Z,980.23
2023-03-14T04:55:01.335Z,980.14
2023-03-14T04:56:01.306Z,980.15
2023-03-14T04:57:01.266Z,980.13
2023-03-14T04:58:01.309Z,980.04
2023-03-14T04:59:01.280Z,980.04
2023-03-14T05:00:01.275Z,980.02
2023-03-14T05:01:01.268Z,980.00
2023-03-14T05:02:01.304Z,980.03
2023-03-14T05:03:01.311Z,980.01
2023-03-14T05:04:01.236Z,980.06
2023-03-14T05:05:01.158Z,980.06
2023-03-14T05:06:01.223Z,980.04
2023-03-14T05:07:01.204Z,980.02
2023-03-14T05:08:01.203Z,979.98
2023-03-14T05:09:01.736Z,979.93
2023-03-14T05:10:01.158Z,979.91
2023-03-14T05:11:01.096Z,979.88
2023-03-14T05:12:01.131Z,979.93
2023-03-14T05:13:01.138Z,979.90
2023-03-14T05:14:01.118Z,979.92
2023-03-14T05:15:01.108Z,979.92
2023-03-14T05:16:01.153Z,979.91
2023-03-14T05:17:01.603Z,979.92
2023-03-14T05:18:01.085Z,979.86
2023-03-14T05:19:01.084Z,979.87
2023-03-14T05:20:01.058Z,979.89
2023-03-14T05:21:01.057Z,979.87
2023-03-14T05:22:01.036Z,979.82
2023-03-14T05:23:01.031Z,979.80
2023-03-14T05:24:01.047Z,979.80
2023-03-14T05:25:01.011Z,979.79
2023-03-14T05:26:00.983Z,979.81
2023-03-14T05:27:00.933Z,979.80
2023-03-14T05:28:00.906Z,979.75
2023-03-14T05:29:00.919Z,979.66
2023-03-14T05:30:00.906Z,979.66
2023-03-14T05:31:00.899Z,979.65
2023-03-14T05:32:00.874Z,979.64
2023-03-14T05:33:00.993Z,979.62
2023-03-14T05:34:00.852Z,979.60
2023-03-14T05:35:00.847Z,979.54
2023-03-14T05:36:00.858Z,979.53
2023-03-14T05:37:00.852Z,979.51
2023-03-14T05:38:00.813Z,979.46
2023-03-14T05:39:00.802Z,979.50
2023-03-14T05:40:00.831Z,979.53
2023-03-14T05:41:00.783Z,979.52
2023-03-14T05:42:00.769Z,979.48
2023-03-14T05:43:00.764Z,979.43
2023-03-14T05:44:00.748Z,979.41
2023-03-14T05:45:00.759Z,979.43
2023-03-14T05:46:00.746Z,979.47
2023-03-14T05:47:00.728Z,979.46
2023-03-14T05:48:00.710Z,979.42
2023-03-14T05:49:00.725Z,979.42
2023-03-14T05:50:00.686Z,979.39
2023-03-14T05:51:00.701Z,979.39
2023-03-14T05:52:00.734Z,979.39
2023-03-14T05:53:00.672Z,979.35
2023-03-14T05:54:00.670Z,979.35
2023-03-14T05:55:00.658Z,979.37
2023-03-14T05:56:00.625Z,979.33
2023-03-14T05:57:00.645Z,979.36
2023-03-14T05:58:00.603Z,979.35
2023-03-14T05:59:00.598Z,979.40
2023-03-14T06:00:00.583Z,979.39
2023-03-14T06:01:00.574Z,979.38
2023-03-14T06:02:00.592Z,979.37
2023-03-14T06:03:00.668Z,979.36
2023-03-14T06:04:00.548Z,979.36
2023-03-14T06:05:00.538Z,979.36
2023-03-14T06:06:00.525Z,979.39
2023-03-14T06:07:00.537Z,979.39
2023-03-14T06:08:00.504Z,979.39
2023-03-14T06:09:00.785Z,979.36
2023-03-14T06:10:00.475Z,979.40
2023-03-14T06:11:00.472Z,979.41
2023-03-14T06:12:00.454Z,979.37
2023-03-14T06:13:00.457Z,979.37
2023-03-14T06:14:00.492Z,979.37
2023-03-14T06:15:00.464Z,979.36
2023-03-14T06:16:00.425Z,979.36
2023-03-14T06:17:00.427Z,979.37
2023-03-14T06:18:00.491Z,979.37
2023-03-14T06:19:00.399Z,979.39
2023-03-14T06:20:00.379Z,979.38
2023-03-14T06:21:00.394Z,979.36
2023-03-14T06:22:00.363Z,979.38
2023-03-14T06:23:00.344Z,979.41
2023-03-14T06:24:00.345Z,979.42
2023-03-14T06:25:00.325Z,979.43
2023-03-14T06:26:00.314Z,979.43
2023-03-14T06:27:00.343Z,979.44
2023-03-14T06:28:00.320Z,979.42
2023-03-14T06:29:00.329Z,979.46
2023-03-14T06:30:00.280Z,979.42
2023-03-14T06:31:00.322Z,979.41
2023-03-14T06:32:00.262Z,979.43
2023-03-14T06:33:00.373Z,979.46
2023-03-14T06:34:00.242Z,979.46
2023-03-14T06:35:00.275Z,979.47
2023-03-14T06:36:00.277Z,979.46
2023-03-14T06:37:00.219Z,979.48
2023-03-14T06:38:00.190Z,979.45
2023-03-14T06:39:00.189Z,979.45
2023-03-14T06:40:00.167Z,979.51
2023-03-14T06:41:00.188Z,979.51
2023-03-14T06:42:00.200Z,979.52
2023-03-14T06:43:00.141Z,979.51
2023-03-14T06:44:00.129Z,979.53
2023-03-14T06:45:00.132Z,979.49
2023-03-14T06:46:00.187Z,979.47
2023-03-14T06:47:00.196Z,979.49
2023-03-14T06:48:00.118Z,979.47
2023-03-14T06:49:00.090Z,979.50
2023-03-14T06:50:00.102Z,979.51
2023-03-14T06:51:00.084Z,979.50
2023-03-14T06:52:00.052Z,979.45
2023-03-14T06:53:00.243Z,979.50
2023-03-14T06:54:00.067Z,979.51
2023-03-14T06:55:00.011Z,979.51
2023-03-14T06:56:00.034Z,979.50
2023-03-14T06:57:00.013Z,979.49
2023-03-14T06:57:59.982Z,979.50
2023-03-14T06:59:00.006Z,979.54
2023-03-14T06:59:59.957Z,979.55
2023-03-14T07:01:00.030Z,979.58
2023-03-14T07:01:59.940Z,979.55
2023-03-14T07:02:59.947Z,979.54
2023-03-14T07:03:59.983Z,979.56
2023-03-14T07:04:59.908Z,979.55
2023-03-14T07:05:59.899Z,979.55
2023-03-14T07:06:59.893Z,979.52
2023-03-14T07:07:59.940Z,979.53
2023-03-14T07:08:59.879Z,979.52
2023-03-14T07:09:59.855Z,979.51
2023-03-14T07:10:59.843Z,979.51
2023-03-14T07:11:59.830Z,979.49
2023-03-14T07:12:59.832Z,979.50
2023-03-14T07:13:59.937Z,979.53
2023-03-14T07:15:11.946Z,979.54
2023-03-14T07:15:59.856Z,979.55
2023-03-14T07:16:59.779Z,979.54
2023-03-14T07:17:59.776Z,979.55
2023-03-14T07:18:59.753Z,979.55
2023-03-14T07:19:59.755Z,979.57
2023-03-14T07:20:59.757Z,979.53
2023-03-14T07:21:59.735Z,979.52
2023-03-14T07:22:59.710Z,979.51
2023-03-14T07:23:59.703Z,979.54
2023-03-14T07:24:59.719Z,979.53
2023-03-14T07:25:59.705Z,979.50
2023-03-14T07:26:59.708Z,979.54
2023-03-14T07:27:59.664Z,979.57
2023-03-14T07:28:59.658Z,979.53
2023-03-14T07:29:59.639Z,979.56
2023-03-14T07:30:59.660Z,979.55
2023-03-14T07:31:59.628Z,979.55
2023-03-14T07:32:59.667Z,979.56
2023-03-14T07:33:59.618Z,979.52
2023-03-14T07:34:59.593Z,979.53
2023-03-14T07:35:59.645Z,979.54
2023-03-14T07:36:59.558Z,979.55
2023-03-14T07:37:59.574Z,979.57
2023-03-14T07:38:59.556Z,979.53
2023-03-14T07:39:59.540Z,979.55
2023-03-14T07:40:59.516Z,979.55
2023-03-14T07:42:00.388Z,979.64
2023-03-14T07:42:59.509Z,979.67
2023-03-14T07:43:59.514Z,979.68
2023-03-14T07:44:59.626Z,979.67
2023-03-14T07:45:59.674Z,979.69
2023-03-14T07:46:59.461Z,979.71
2023-03-14T07:47:59.462Z,979.74
2023-03-14T07:49:00.297Z,979.76
2023-03-14T07:49:59.431Z,979.76
2023-03-14T07:50:59.470Z,979.75
2023-03-14T07:51:59.414Z,979.77
2023-03-14T07:52:59.427Z,979.75
2023-03-14T07:53:59.467Z,979.72
2023-03-14T07:54:59.378Z,979.75
2023-03-14T07:55:59.389Z,979.76
2023-03-14T07:56:59.362Z,979.74
2023-03-14T07:57:59.350Z,979.77
2023-03-14T07:58:59.340Z,979.76
2023-03-14T07:59:59.368Z,979.80
2023-03-14T08:00:59.305Z,979.74
2023-03-14T08:01:59.323Z,979.72
2023-03-14T08:02:59.361Z,979.69
2023-03-14T08:03:59.512Z,979.72
2023-03-14T08:04:59.288Z,979.68
2023-03-14T08:05:59.276Z,979.70
2023-03-14T08:06:59.242Z,979.73
2023-03-14T08:07:59.282Z,979.74
2023-03-14T08:08:59.232Z,979.73
2023-03-14T08:09:59.253Z,979.73
2023-03-14T08:10:59.219Z,979.70
2023-03-14T08:11:59.205Z,979.73
2023-03-14T08:12:59.186Z,979.78
2023-03-14T08:13:59.229Z,979.75
2023-03-14T08:14:59.161Z,979.77
2023-03-14T08:15:59.183Z,979.78
2023-03-14T08:16:59.138Z,979.77
2023-03-14T08:17:59.153Z,979.78
2023-03-14T08:18:59.186Z,979.77
2023-03-14T08:19:59.136Z,979.79
2023-03-14T08:20:59.106Z,979.79
2023-03-14T08:21:59.083Z,979.80
2023-03-14T08:22:59.090Z,979.77
2023-03-14T08:23:59.107Z,979.80
2023-03-14T08:24:59.056Z,979.78
2023-03-14T08:25:59.066Z,979.79
2023-03-14T08:26:59.090Z,979.76
2023-03-14T08:27:59.036Z,979.77
2023-03-14T08:28:59.010Z,979.79
2023-03-14T08:29:59.012Z,979.77
2023-03-14T08:30:59.073Z,979.78
2023-03-14T08:31:59.085Z,979.78
2023-03-14T08:32:59.103Z,979.81
2023-03-14T08:33:58.952Z,979.74
2023-03-14T08:34:58.954Z,979.80
2023-03-14T08:35:59.021Z,979.80
2023-03-14T08:36:58.931Z,979.84
2023-03-14T08:37:58.938Z,979.82
2023-03-14T08:38:58.979Z,979.85
2023-03-14T08:39:58.922Z,979.84
2023-03-14T08:40:58.898Z,979.84
2023-03-14T08:41:58.867Z,979.87
2023-03-14T08:42:58.883Z,979.89
2023-03-14T08:43:58.957Z,979.90
2023-03-14T08:44:58.840Z,979.92
2023-03-14T08:45:58.857Z,979.93
2023-03-14T08:46:58.859Z,979.95
2023-03-14T08:47:58.841Z,979.96
2023-03-14T08:48:58.864Z,979.93
2023-03-14T08:49:58.840Z,979.93
2023-03-14T08:50:58.780Z,979.95
2023-03-14T08:51:58.764Z,979.97
2023-03-14T08:52:58.846Z,979.94
2023-03-14T08:53:58.817Z,979.96
2023-03-14T08:54:58.744Z,979.91
2023-03-14T08:55:58.738Z,979.95
2023-03-14T08:56:58.722Z,979.94
2023-03-14T08:57:58.717Z,979.93
2023-03-14T08:58:58.679Z,979.91
2023-03-14T08:59:58.684Z,979.90
2023-03-14T09:00:58.694Z,979.92
2023-03-14T09:01:58.686Z,979.90
2023-03-14T09:02:58.699Z,979.95
2023-03-14T09:03:58.735Z,979.96
2023-03-14T09:04:58.622Z,980.03
2023-03-14T09:05:58.635Z,980.04
2023-03-14T09:06:58.602Z,980.06
2023-03-14T09:07:58.597Z,980.08
2023-03-14T09:08:58.666Z,980.13
2023-03-14T09:09:58.577Z,980.15
2023-03-14T09:10:58.576Z,980.18
2023-03-14T09:11:58.549Z,980.12
2023-03-14T09:12:58.535Z,980.12
2023-03-14T09:13:58.529Z,980.15
2023-03-14T09:14:58.513Z,980.20
2023-03-14T09:15:58.527Z,980.16
2023-03-14T09:16:58.532Z,980.15
2023-03-14T09:17:58.523Z,980.24
2023-03-14T09:18:58.476Z,980.33
2023-03-14T09:20:00.486Z,980.34
2023-03-14T09:20:58.461Z,980.33
2023-03-14T09:21:58.466Z,980.34
2023-03-14T09:22:58.445Z,980.36
2023-03-14T09:23:58.426Z,980.41
2023-03-14T09:24:58.413Z,980.41
2023-03-14T09:25:58.407Z,980.34
2023-03-14T09:26:58.414Z,980.38
2023-03-14T09:27:58.401Z,980.50
2023-03-14T09:28:58.813Z,980.51
2023-03-14T09:29:58.376Z,980.51
2023-03-14T09:30:58.392Z,980.51
2023-03-14T09:31:58.440Z,980.54
2023-03-14T09:32:58.464Z,980.54
2023-03-14T09:33:58.376Z,980.51
2023-03-14T09:34:58.312Z,980.53
2023-03-14T09:35:58.479Z,980.62
2023-03-14T09:36:58.312Z,980.70
2023-03-14T09:37:58.287Z,980.90
2023-03-14T09:38:58.273Z,981.16
2023-03-14T09:39:58.277Z,981.24
2023-03-14T09:40:58.252Z,981.27
2023-03-14T09:41:58.255Z,981.29
2023-03-14T09:42:58.227Z,981.46
2023-03-14T09:43:58.213Z,981.43
2023-03-14T09:44:58.261Z,981.44
2023-03-14T09:45:58.302Z,981.44
2023-03-14T09:46:58.208Z,981.51
2023-03-14T09:47:59.832Z,981.60
2023-03-14T09:48:58.161Z,981.62
2023-03-14T09:49:58.166Z,981.60
2023-03-14T09:50:58.140Z,981.70
2023-03-14T09:51:58.147Z,981.71
2023-03-14T09:52:58.135Z,981.76
2023-03-14T09:53:58.205Z,981.77
2023-03-14T09:54:58.126Z,981.82
2023-03-14T09:55:58.106Z,981.86
2023-03-14T09:56:58.075Z,981.89
2023-03-14T09:57:58.086Z,981.96
2023-03-14T09:58:58.069Z,981.96
2023-03-14T09:59:58.034Z,982.01
2023-03-14T10:00:58.086Z,982.05
2023-03-14T10:01:58.016Z,982.09
2023-03-14T10:02:58.028Z,982.11
2023-03-14T10:03:58.011Z,982.11
2023-03-14T10:04:57.997Z,982.20
2023-03-14T10:05:58.011Z,982.20
2023-03-14T10:06:57.991Z,982.23
2023-03-14T10:07:57.947Z,982.30
2023-03-14T10:08:57.939Z,982.37
2023-03-14T10:09:57.954Z,982.50
2023-03-14T10:10:57.931Z,982.51
2023-03-14T10:11:58.319Z,982.54
2023-03-14T10:12:57.947Z,982.66
2023-03-14T10:13:57.883Z,982.64
2023-03-14T10:14:57.876Z,982.69
2023-03-14T10:15:57.884Z,982.67
2023-03-14T10:16:57.898Z,982.74
2023-03-14T10:17:57.851Z,982.80
2023-03-14T10:18:57.831Z,982.79
2023-03-14T10:19:57.837Z,982.84
2023-03-14T10:20:57.818Z,982.87
2023-03-14T10:21:57.841Z,982.96
2023-03-14T10:22:57.806Z,982.97
2023-03-14T10:23:57.784Z,982.97
2023-03-14T10:24:57.782Z,983.00
2023-03-14T10:25:57.760Z,983.05
2023-03-14T10:26:57.792Z,983.02
2023-03-14T10:27:57.752Z,983.07
2023-03-14T10:28:57.794Z,983.08
2023-03-14T10:29:59.581Z,983.13
2023-03-14T10:30:57.740Z,983.11
2023-03-14T10:31:57.707Z,983.10
2023-03-14T10:32:57.756Z,983.12
2023-03-14T10:33:57.687Z,983.13
2023-03-14T10:34:57.654Z,983.20
2023-03-14T10:35:57.699Z,983.29
2023-03-14T10:36:57.638Z,983.29
2023-03-14T10:37:57.631Z,983.33
2023-03-14T10:38:57.657Z,983.41
2023-03-14T10:39:57.609Z,983.45
2023-03-14T10:40:57.618Z,983.52
2023-03-14T10:41:59.926Z,983.59
2023-03-14T10:42:57.586Z,983.69
2023-03-14T10:43:57.581Z,983.78
2023-03-14T10:44:57.564Z,983.85
2023-03-14T10:45:57.577Z,983.89
2023-03-14T10:46:57.548Z,983.99
2023-03-14T10:47:57.536Z,983.97
2023-03-14T10:48:58.227Z,984.04
2023-03-14T10:49:57.538Z,984.17
2023-03-14T10:50:57.492Z,984.15
2023-03-14T10:51:57.494Z,984.19
2023-03-14T10:53:04.692Z,984.25
2023-03-14T10:53:57.577Z,984.31
2023-03-14T10:54:57.444Z,984.43
2023-03-14T10:55:57.447Z,984.46
2023-03-14T10:56:57.442Z,984.49
2023-03-14T10:57:57.419Z,984.61
2023-03-14T10:58:57.407Z,984.72
2023-03-14T10:59:57.418Z,984.82
2023-03-14T11:00:57.393Z,984.92
2023-03-14T11:01:57.424Z,984.94
2023-03-14T11:02:57.358Z,985.01
2023-03-14T11:03:57.351Z,985.11
2023-03-14T11:04:57.387Z,985.23
2023-03-14T11:05:57.346Z,985.21
2023-03-14T11:06:57.335Z,985.28
2023-03-14T11:07:57.314Z,985.35
2023-03-14T11:08:57.318Z,985.39
2023-03-14T11:10:03.271Z,985.39
2023-03-14T11:10:57.315Z,985.50
2023-03-14T11:11:57.284Z,985.52
2023-03-14T11:12:57.293Z,985.59
2023-03-14T11:13:57.320Z,985.66
2023-03-14T11:14:57.230Z,985.68
2023-03-14T11:15:57.274Z,985.68
2023-03-14T11:16:57.213Z,985.73
2023-03-14T11:17:57.271Z,985.78
2023-03-14T11:18:57.190Z,985.85
2023-03-14T11:19:57.197Z,985.92
2023-03-14T11:20:57.205Z,986.04
2023-03-14T11:21:57.212Z,986.10
2023-03-14T11:22:57.173Z,986.08
2023-03-14T11:23:57.150Z,986.09
2023-03-14T11:24:57.913Z,986.12
2023-03-14T11:25:57.170Z,986.24
2023-03-14T11:26:57.138Z,986.28
2023-03-14T11:27:57.104Z,986.51
2023-03-14T11:28:57.117Z,986.37
2023-03-14T11:29:57.094Z,986.47
2023-03-14T11:30:57.111Z,986.38
2023-03-14T11:31:57.088Z,986.47
2023-03-14T11:32:57.205Z,986.59
2023-03-14T11:33:57.096Z,986.55
2023-03-14T11:34:57.031Z,986.60
2023-03-14T11:35:57.054Z,986.59
2023-03-14T11:36:57.053Z,986.65
2023-03-14T11:37:57.013Z,986.70
2023-03-14T11:38:57.001Z,986.66
2023-03-14T11:39:56.992Z,986.72
2023-03-14T11:40:56.966Z,986.72
2023-03-14T11:41:56.986Z,986.77
2023-03-14T11:42:56.969Z,986.78
2023-03-14T11:43:56.976Z,986.87
2023-03-14T11:44:56.957Z,986.81
2023-03-14T11:45:56.913Z,986.89
2023-03-14T11:46:58.773Z,986.89
2023-03-14T11:47:56.904Z,986.95
2023-03-14T11:48:56.981Z,987.02
2023-03-14T11:49:56.885Z,987.00
2023-03-14T11:50:56.913Z,987.09
2023-03-14T11:51:56.888Z,987.12
2023-03-14T11:52:56.913Z,987.14
2023-03-14T11:53:56.855Z,987.15
2023-03-14T11:54:56.841Z,987.20
2023-03-14T11:55:56.834Z,987.24
2023-03-14T11:56:56.807Z,987.28
2023-03-14T11:57:56.786Z,987.35
2023-03-14T11:58:56.806Z,987.36
2023-03-14T11:59:56.769Z,987.35
2023-03-14T12:00:56.769Z,987.37
2023-03-14T12:01:56.798Z,987.39
2023-03-14T12:02:56.751Z,987.41
2023-03-14T12:03:56.801Z,987.46
2023-03-14T12:04:56.757Z,987.50
2023-03-14T12:05:56.702Z,987.54
2023-03-14T12:06:56.737Z,987.63
2023-03-14T12:07:56.703Z,987.56
2023-03-14T12:08:56.738Z,987.62
2023-03-14T12:09:56.683Z,987.62
2023-03-14T12:10:56.658Z,987.71
2023-03-14T12:11:56.663Z,987.72
2023-03-14T12:12:56.642Z,987.85
2023-03-14T12:13:56.637Z,987.83
2023-03-14T12:14:56.615Z,987.78
2023-03-14T12:15:56.674Z,987.82
2023-03-14T12:16:57.333Z,987.86
2023-03-14T12:17:56.636Z,987.82
2023-03-14T12:18:56.572Z,987.85
2023-03-14T12:19:56.564Z,987.86
2023-03-14T12:20:56.583Z,987.92
2023-03-14T12:21:56.540Z,987.95
2023-03-14T12:22:56.555Z,987.95
2023-03-14T12:23:56.521Z,987.97
2023-03-14T12:24:56.882Z,988.01
2023-03-14T12:25:56.531Z,988.02
2023-03-14T12:26:56.523Z,988.04
2023-03-14T12:27:56.503Z,988.06